createdAt,value
2019-06-26T06:00:33.513Z,4.70
2019-06-26T06:01:33.491Z,29.40
2019-06-26T06:02:33.482Z,29.70
2019-06-26T06:03:33.481Z,27.70
2019-06-26T06:04:33.449Z,27.20
2019-06-26T06:05:33.434Z,28.80
2019-06-26T06:06:41.616Z,28.60
2019-06-26T06:08:43.785Z,27.80
2019-06-26T06:09:43.745Z,28.10
2019-06-26T06:10:43.766Z,27.70
2019-06-26T06:11:43.766Z,28.70
2019-06-26T06:12:43.742Z,27.10
2019-06-26T06:13:43.709Z,26.10
2019-06-26T06:14:43.691Z,27.10
2019-06-26T06:15:43.687Z,26.00
2019-06-26T06:16:47.874Z,25.50
2019-06-26T06:17:43.690Z,25.20
2019-06-26T06:18:43.662Z,24.20
2019-06-26T06:19:43.644Z,25.50
2019-06-26T06:20:43.626Z,24.60
2019-06-26T06:21:43.634Z,23.40
2019-06-26T06:22:43.627Z,24.90
2019-06-26T06:23:43.631Z,24.80
2019-06-26T06:24:43.672Z,23.50
2019-06-26T06:25:43.597Z,25.60
2019-06-26T06:26:43.607Z,25.10
2019-06-26T06:27:43.581Z,24.70
2019-06-26T06:28:43.548Z,26.20
2019-06-26T06:29:43.619Z,27.30
2019-06-26T06:30:51.077Z,24.50
2019-06-26T06:31:43.523Z,27.10
2019-06-26T06:32:43.504Z,27.10
2019-06-26T06:33:43.519Z,27.70
2019-06-26T06:34:43.487Z,27.90
2019-06-26T06:35:43.468Z,28.40
2019-06-26T06:36:43.460Z,28.90
2019-06-26T06:37:43.481Z,28.30
2019-06-26T06:38:43.487Z,28.50
2019-06-26T06:39:43.426Z,26.40
2019-06-26T06:40:43.421Z,28.10
2019-06-26T06:41:43.668Z,28.20
2019-06-26T06:42:43.392Z,28.20
2019-06-26T06:43:43.917Z,31.10
2019-06-26T06:44:43.405Z,31.10
2019-06-26T06:45:43.584Z,29.30
2019-06-26T06:46:43.353Z,30.70
2019-06-26T06:47:43.345Z,30.70
2019-06-26T06:48:43.443Z,28.70
2019-06-26T06:49:43.345Z,30.50
2019-06-26T06:50:43.362Z,29.40
2019-06-26T06:51:43.302Z,29.30
2019-06-26T06:52:43.325Z,31.20
2019-06-26T06:53:43.314Z,31.70
2019-06-26T06:54:43.268Z,32.60
2019-06-26T06:55:43.291Z,31.00
2019-06-26T06:56:43.252Z,32.00
2019-06-26T06:57:43.268Z,29.60
2019-06-26T06:58:43.258Z,30.90
2019-06-26T06:59:43.255Z,30.90
2019-06-26T07:00:43.266Z,28.60
2019-06-26T07:01:43.203Z,30.00
2019-06-26T07:02:43.195Z,31.00
2019-06-26T07:03:43.180Z,32.20
2019-06-26T07:04:43.203Z,32.60
2019-06-26T07:05:43.179Z,30.40
2019-06-26T07:06:43.145Z,29.20
2019-06-26T07:07:43.151Z,33.00
2019-06-26T07:08:43.159Z,31.60
2019-06-26T07:09:43.161Z,29.60
2019-06-26T07:10:43.115Z,32.10
2019-06-26T07:11:43.126Z,30.50
2019-06-26T07:12:43.102Z,29.30
2019-06-26T07:13:43.072Z,29.70
2019-06-26T07:14:43.113Z,30.90
2019-06-26T07:15:43.112Z,28.70
2019-06-26T07:16:43.044Z,27.10
2019-06-26T07:17:43.089Z,28.20
2019-06-26T07:18:43.083Z,27.80
2019-06-26T07:19:43.038Z,28.60
2019-06-26T07:20:44.767Z,27.70
2019-06-26T07:21:42.993Z,26.70
2019-06-26T07:22:42.989Z,29.30
2019-06-26T07:23:42.970Z,29.30
2019-06-26T07:24:42.999Z,28.10
2019-06-26T07:25:42.996Z,29.00
2019-06-26T07:26:42.937Z,27.80
2019-06-26T07:27:42.923Z,28.00
2019-06-26T07:28:43.007Z,26.60
2019-06-26T07:29:42.939Z,29.80
2019-06-26T07:30:42.894Z,27.80
2019-06-26T07:31:42.898Z,24.50
2019-06-26T07:32:42.889Z,27.40
2019-06-26T07:33:42.996Z,26.00
2019-06-26T07:34:42.862Z,24.90
2019-06-26T07:35:42.947Z,27.30
2019-06-26T07:36:42.900Z,28.40
2019-06-26T07:37:42.819Z,27.20
2019-06-26T07:38:42.863Z,26.00
2019-06-26T07:39:42.829Z,25.30
2019-06-26T07:40:42.806Z,26.20
2019-06-26T07:41:42.775Z,23.60
2019-06-26T07:42:42.871Z,23.50
2019-06-26T07:43:42.819Z,21.30
2019-06-26T07:44:42.765Z,23.90
2019-06-26T07:45:42.740Z,22.90
2019-06-26T07:46:42.726Z,23.40
2019-06-26T07:47:44.256Z,23.00
2019-06-26T07:48:42.757Z,23.10
2019-06-26T07:49:42.726Z,22.60
2019-06-26T07:50:42.706Z,24.80
2019-06-26T07:51:42.695Z,25.90
2019-06-26T07:52:42.878Z,25.60
2019-06-26T07:53:42.662Z,24.80
2019-06-26T07:54:42.668Z,23.60
2019-06-26T07:55:42.637Z,24.30
2019-06-26T07:56:42.658Z,25.70
2019-06-26T07:57:42.617Z,26.50
2019-06-26T07:58:42.655Z,27.10
2019-06-26T07:59:42.675Z,25.00
2019-06-26T08:00:42.596Z,24.00
2019-06-26T08:01:42.594Z,23.80
2019-06-26T08:02:42.566Z,25.20
2019-06-26T08:03:42.550Z,23.30
2019-06-26T08:04:42.576Z,22.10
2019-06-26T08:05:43.255Z,20.30
2019-06-26T08:06:42.547Z,19.50
2019-06-26T08:07:42.515Z,16.80
2019-06-26T08:08:42.514Z,16.80
2019-06-26T08:09:42.519Z,20.70
2019-06-26T08:10:42.527Z,20.40
2019-06-26T08:11:42.505Z,21.60
2019-06-26T08:12:42.492Z,20.10
2019-06-26T08:13:42.458Z,18.00
2019-06-26T08:14:42.535Z,17.50
2019-06-26T08:15:42.424Z,15.50
2019-06-26T08:16:42.448Z,14.60
2019-06-26T08:17:58.801Z,15.80
2019-06-26T08:18:43.396Z,16.90
2019-06-26T08:19:42.438Z,16.40
2019-06-26T08:20:55.482Z,16.90
2019-06-26T08:22:52.732Z,14.10
2019-06-26T08:23:52.687Z,15.50
2019-06-26T08:24:52.709Z,13.90
2019-06-26T08:25:52.714Z,12.60
2019-06-26T08:26:52.658Z,12.30
2019-06-26T08:27:52.695Z,12.00
2019-06-26T08:28:52.636Z,12.30
2019-06-26T08:29:52.669Z,12.80
2019-06-26T08:30:52.859Z,13.40
2019-06-26T08:31:52.610Z,13.30
2019-06-26T08:32:52.658Z,13.60
2019-06-26T08:33:52.586Z,13.20
2019-06-26T08:34:52.577Z,15.10
2019-06-26T08:35:52.595Z,15.80
2019-06-26T08:36:52.594Z,15.00
2019-06-26T08:38:09.079Z,13.70
2019-06-26T08:38:53.582Z,13.60
2019-06-26T08:39:52.547Z,12.70
2019-06-26T08:40:52.523Z,12.40
2019-06-26T08:41:52.843Z,12.20
2019-06-26T08:42:52.528Z,12.00
2019-06-26T08:43:52.492Z,13.50
2019-06-26T08:44:52.518Z,12.10
2019-06-26T08:45:52.476Z,10.90
2019-06-26T08:46:52.466Z,12.30
2019-06-26T08:47:52.438Z,13.50
2019-06-26T08:48:52.457Z,14.00
2019-06-26T08:49:52.472Z,13.50
2019-06-26T08:50:52.416Z,13.80
2019-06-26T08:51:52.398Z,12.70
2019-06-26T08:52:52.458Z,13.50
2019-06-26T08:53:52.381Z,14.80
2019-06-26T08:54:52.381Z,15.90
2019-06-26T08:55:52.385Z,15.20
2019-06-26T08:56:52.344Z,14.10
2019-06-26T08:57:52.428Z,14.90
2019-06-26T08:58:52.348Z,13.90
2019-06-26T08:59:52.322Z,13.50
2019-06-26T09:00:52.357Z,14.70
2019-06-26T09:01:52.369Z,13.00
2019-06-26T09:02:52.303Z,15.80
2019-06-26T09:03:52.285Z,15.30
2019-06-26T09:04:52.272Z,13.10
2019-06-26T09:05:52.311Z,15.80
2019-06-26T09:06:52.292Z,15.30
2019-06-26T09:07:52.269Z,16.50
2019-06-26T09:08:52.249Z,15.00
2019-06-26T09:09:52.215Z,15.00
2019-06-26T09:10:52.208Z,14.10
2019-06-26T09:11:52.302Z,15.90
2019-06-26T09:12:52.183Z,13.60
2019-06-26T09:13:52.169Z,13.30
2019-06-26T09:14:52.158Z,15.40
2019-06-26T09:15:52.151Z,14.00
2019-06-26T09:16:52.182Z,15.30
2019-06-26T09:17:52.129Z,15.10
2019-06-26T09:18:52.131Z,13.40
2019-06-26T09:19:52.108Z,14.60
2019-06-26T09:20:52.197Z,16.50
2019-06-26T09:21:52.126Z,15.30
2019-06-26T09:22:52.087Z,15.40
2019-06-26T09:23:52.164Z,16.60
2019-06-26T09:24:52.092Z,15.20
2019-06-26T09:25:52.047Z,16.90
2019-06-26T09:26:52.060Z,15.30
2019-06-26T09:27:52.033Z,15.60
2019-06-26T09:28:52.015Z,16.20
2019-06-26T09:29:52.043Z,17.10
2019-06-26T09:30:52.025Z,15.10
2019-06-26T09:31:52.019Z,15.40
2019-06-26T09:32:51.998Z,16.90
2019-06-26T09:33:51.966Z,16.60
2019-06-26T09:34:51.983Z,17.10
2019-06-26T09:35:51.978Z,16.30
2019-06-26T09:36:51.932Z,15.30
2019-06-26T09:37:51.926Z,17.70
2019-06-26T09:38:51.911Z,15.60
2019-06-26T09:39:51.905Z,15.70
2019-06-26T09:40:52.347Z,15.80
2019-06-26T09:41:51.893Z,15.70
2019-06-26T09:42:59.413Z,15.60
2019-06-26T09:43:51.915Z,16.30
2019-06-26T09:44:51.855Z,16.80
2019-06-26T09:45:51.869Z,17.00
2019-06-26T09:46:51.838Z,17.70
2019-06-26T09:47:51.828Z,16.90
2019-06-26T09:48:53.501Z,16.00
2019-06-26T09:49:51.873Z,16.70
2019-06-26T09:50:51.790Z,15.90
2019-06-26T09:51:51.783Z,15.70
2019-06-26T09:52:51.782Z,16.20
2019-06-26T09:53:51.784Z,15.70
2019-06-26T09:54:51.794Z,15.50
2019-06-26T09:55:51.743Z,14.70
2019-06-26T09:56:51.738Z,16.80
2019-06-26T09:57:52.272Z,15.10
2019-06-26T09:58:51.748Z,16.10
2019-06-26T09:59:51.741Z,15.50
2019-06-26T10:00:51.694Z,16.50
2019-06-26T10:01:51.688Z,16.80
2019-06-26T10:02:51.765Z,17.00
2019-06-26T10:03:51.654Z,16.00
2019-06-26T10:04:51.648Z,15.60
2019-06-26T10:05:51.652Z,15.30
2019-06-26T10:06:51.690Z,15.40
2019-06-26T10:07:51.693Z,15.10
2019-06-26T10:08:54.167Z,14.50
2019-06-26T10:09:51.596Z,15.10
2019-06-26T10:10:51.645Z,15.90
2019-06-26T10:11:51.610Z,16.90
2019-06-26T10:12:59.136Z,16.10
2019-06-26T10:13:51.574Z,15.50
2019-06-26T10:14:51.571Z,14.70
2019-06-26T10:15:51.528Z,16.20
2019-06-26T10:16:51.548Z,16.10
2019-06-26T10:17:51.519Z,16.20
2019-06-26T10:19:05.580Z,17.40
2019-06-26T10:19:54.127Z,17.40
2019-06-26T10:20:51.509Z,16.00
2019-06-26T10:21:51.476Z,15.80
2019-06-26T10:22:51.536Z,15.90
2019-06-26T10:23:51.483Z,15.20
2019-06-26T10:24:51.506Z,15.40
2019-06-26T10:25:51.426Z,16.80
2019-06-26T10:26:51.428Z,17.20
2019-06-26T10:27:51.426Z,16.30
2019-06-26T10:28:51.403Z,16.50
2019-06-26T10:29:51.477Z,14.90
2019-06-26T10:30:51.393Z,16.30
2019-06-26T10:31:54.527Z,16.30
2019-06-26T10:32:51.354Z,15.70
2019-06-26T10:33:51.432Z,18.40
2019-06-26T10:34:51.336Z,17.00
2019-06-26T10:35:51.335Z,17.20
2019-06-26T10:36:51.318Z,15.90
2019-06-26T10:37:51.397Z,15.50
2019-06-26T10:38:51.326Z,16.20
2019-06-26T10:39:51.319Z,16.20
2019-06-26T10:40:51.315Z,16.10
2019-06-26T10:41:54.717Z,15.80
2019-06-26T10:42:51.368Z,15.10
2019-06-26T10:43:51.245Z,15.40
2019-06-26T10:44:51.235Z,15.70
2019-06-26T10:45:51.227Z,15.40
2019-06-26T10:46:51.302Z,15.10
2019-06-26T10:47:51.240Z,15.20
2019-06-26T10:48:51.221Z,15.10
2019-06-26T10:49:51.183Z,16.60
2019-06-26T10:50:58.174Z,15.80
2019-06-26T10:51:52.222Z,15.80
2019-06-26T10:52:51.181Z,16.10
2019-06-26T10:53:51.157Z,17.00
2019-06-26T10:54:51.133Z,17.00
2019-06-26T10:55:51.143Z,15.90
2019-06-26T10:56:51.109Z,16.20
2019-06-26T10:57:51.158Z,15.50
2019-06-26T10:58:51.089Z,16.60
2019-06-26T10:59:55.337Z,15.00
2019-06-26T11:00:51.165Z,14.60
2019-06-26T11:01:51.069Z,15.50
2019-06-26T11:02:51.085Z,15.00
2019-06-26T11:03:51.035Z,15.60
2019-06-26T11:04:51.051Z,15.90
2019-06-26T11:05:51.345Z,16.00
2019-06-26T11:06:51.012Z,16.20
2019-06-26T11:07:50.997Z,15.90
2019-06-26T11:08:51.103Z,17.00
2019-06-26T11:09:50.985Z,16.50
2019-06-26T11:10:51.016Z,17.10
2019-06-26T11:11:50.990Z,15.70
2019-06-26T11:12:51.011Z,15.00
2019-06-26T11:13:50.936Z,15.10
2019-06-26T11:14:50.988Z,14.50
2019-06-26T11:15:51.003Z,14.40
2019-06-26T11:16:51.026Z,14.80
2019-06-26T11:17:50.961Z,15.60
2019-06-26T11:18:50.911Z,14.70
2019-06-26T11:19:50.908Z,14.10
2019-06-26T11:20:50.935Z,14.50
2019-06-26T11:21:50.936Z,13.70
2019-06-26T11:22:51.105Z,13.30
2019-06-26T11:23:50.871Z,13.40
2019-06-26T11:24:50.961Z,14.70
2019-06-26T11:25:50.861Z,12.70
2019-06-26T11:26:50.815Z,11.90
2019-06-26T11:27:50.840Z,11.80
2019-06-26T11:28:50.784Z,13.10
2019-06-26T11:29:50.779Z,12.80
2019-06-26T11:30:50.805Z,12.20
2019-06-26T11:31:50.770Z,12.30
2019-06-26T11:32:50.740Z,13.80
2019-06-26T11:33:50.762Z,12.40
2019-06-26T11:34:50.758Z,12.50
2019-06-26T11:35:50.787Z,11.70
2019-06-26T11:37:03.177Z,11.10
2019-06-26T11:37:51.690Z,11.30
2019-06-26T11:38:50.681Z,10.90
2019-06-26T11:39:50.793Z,10.50
2019-06-26T11:40:50.704Z,10.70
2019-06-26T11:41:50.690Z,11.30
2019-06-26T11:42:50.652Z,9.70
2019-06-26T11:43:50.636Z,9.20
2019-06-26T11:44:50.663Z,9.40
2019-06-26T11:45:50.649Z,10.40
2019-06-26T11:46:50.619Z,9.70
2019-06-26T11:47:50.603Z,10.50
2019-06-26T11:48:50.628Z,10.10
2019-06-26T11:49:59.715Z,9.60
2019-06-26T11:50:51.561Z,9.70
2019-06-26T11:51:50.595Z,9.80
2019-06-26T11:52:50.549Z,9.50
2019-06-26T11:53:50.559Z,9.60
2019-06-26T11:55:02.013Z,8.70
2019-06-26T11:55:51.526Z,8.60
2019-06-26T11:56:50.541Z,8.30
2019-06-26T11:57:50.554Z,8.90
2019-06-26T11:58:50.488Z,8.10
2019-06-26T11:59:50.502Z,8.00
2019-06-26T12:00:50.485Z,7.60
2019-06-26T12:01:50.470Z,7.90
2019-06-26T12:02:57.995Z,8.10
2019-06-26T12:03:50.434Z,7.90
2019-06-26T12:04:50.446Z,7.30
2019-06-26T12:05:50.469Z,7.60
2019-06-26T12:06:50.412Z,7.30
2019-06-26T12:07:50.406Z,7.50
2019-06-26T12:08:50.443Z,7.70
2019-06-26T12:09:50.498Z,7.50
2019-06-26T12:10:50.376Z,7.50
2019-06-26T12:11:50.362Z,7.60
2019-06-26T12:12:50.406Z,8.20
2019-06-26T12:13:51.391Z,7.20
2019-06-26T12:14:50.386Z,7.60
2019-06-26T12:15:50.633Z,6.90
2019-06-26T12:16:50.307Z,7.20
2019-06-26T12:17:50.291Z,7.10
2019-06-26T12:18:50.323Z,6.90
2019-06-26T12:19:50.281Z,7.20
2019-06-26T12:20:50.281Z,7.30
2019-06-26T12:21:50.275Z,6.40
2019-06-26T12:22:50.286Z,6.40
2019-06-26T12:23:51.023Z,6.00
2019-06-26T12:24:50.225Z,5.90
2019-06-26T12:25:50.273Z,6.50
2019-06-26T12:26:50.318Z,6.30
2019-06-26T12:27:50.226Z,6.70
2019-06-26T12:28:50.177Z,7.00
2019-06-26T12:29:50.189Z,6.80
2019-06-26T12:30:50.191Z,7.40
2019-06-26T12:31:50.184Z,6.90
2019-06-26T12:33:02.487Z,6.50
2019-06-26T12:33:51.128Z,6.40
2019-06-26T12:34:50.183Z,6.40
2019-06-26T12:35:50.142Z,6.80
2019-06-26T12:36:50.098Z,6.60
2019-06-26T12:37:50.142Z,6.30
2019-06-26T12:38:50.085Z,7.00
2019-06-26T12:39:50.101Z,7.20
2019-06-26T12:40:50.153Z,7.20
2019-06-26T12:41:50.070Z,8.00
2019-06-26T12:42:50.043Z,7.20
2019-06-26T12:43:50.032Z,7.20
2019-06-26T12:44:50.084Z,8.00
2019-06-26T12:45:50.007Z,7.80
2019-06-26T12:46:50.088Z,7.90
2019-06-26T12:47:50.121Z,8.20
2019-06-26T12:48:50.018Z,7.70
2019-06-26T12:49:49.987Z,7.60
2019-06-26T12:50:49.964Z,8.20
2019-06-26T12:51:49.946Z,7.80
2019-06-26T12:52:49.971Z,8.30
2019-06-26T12:53:49.938Z,8.50
2019-06-26T12:54:49.908Z,8.90
2019-06-26T12:55:51.545Z,8.70
2019-06-26T12:56:49.910Z,8.10
2019-06-26T12:57:49.881Z,7.80
2019-06-26T12:58:49.894Z,8.60
2019-06-26T12:59:57.218Z,9.70
2019-06-26T13:00:50.849Z,9.90
2019-06-26T13:01:49.901Z,9.90
2019-06-26T13:02:49.845Z,9.90
2019-06-26T13:03:49.829Z,9.40
2019-06-26T13:04:49.818Z,9.40
2019-06-26T13:05:49.829Z,9.00
2019-06-26T13:06:49.803Z,9.10
2019-06-26T13:07:58.354Z,8.80
2019-06-26T13:08:49.794Z,9.60
2019-06-26T13:09:49.783Z,9.00
2019-06-26T13:10:50.620Z,9.20
2019-06-26T13:11:49.845Z,8.80
2019-06-26T13:12:49.734Z,10.20
2019-06-26T13:14:01.974Z,9.50
2019-06-26T13:14:50.715Z,10.00
2019-06-26T13:15:51.082Z,10.00
2019-06-26T13:16:49.712Z,9.70
2019-06-26T13:17:49.764Z,9.20
2019-06-26T13:18:49.742Z,9.50
2019-06-26T13:19:49.733Z,9.30
2019-06-26T13:20:53.319Z,9.10
2019-06-26T13:21:49.673Z,10.20
2019-06-26T13:22:49.647Z,10.00
2019-06-26T13:23:49.615Z,10.30
2019-06-26T13:24:49.640Z,10.30
2019-06-26T13:25:49.647Z,10.40
2019-06-26T13:26:49.627Z,9.60
2019-06-26T13:27:49.602Z,9.60
2019-06-26T13:28:49.583Z,10.40
2019-06-26T13:29:49.561Z,9.90
2019-06-26T13:30:53.104Z,10.50
2019-06-26T13:31:49.698Z,10.50
2019-06-26T13:32:49.540Z,11.00
2019-06-26T13:33:49.528Z,10.10
2019-06-26T13:34:49.511Z,10.00
2019-06-26T13:35:49.573Z,10.50
2019-06-26T13:36:49.501Z,10.60
2019-06-26T13:37:49.475Z,10.80
2019-06-26T13:38:49.476Z,12.20
2019-06-26T13:39:49.495Z,11.40
2019-06-26T13:40:49.484Z,11.60
2019-06-26T13:41:49.513Z,12.00
2019-06-26T13:42:49.428Z,11.10
2019-06-26T13:43:49.413Z,11.40
2019-06-26T13:44:49.404Z,12.40
2019-06-26T13:45:49.424Z,12.00
2019-06-26T13:46:49.391Z,11.40
2019-06-26T13:47:49.408Z,11.00
2019-06-26T13:48:49.363Z,11.50
2019-06-26T13:49:49.386Z,10.90
2019-06-26T13:50:49.350Z,11.70
2019-06-26T13:51:49.378Z,11.50
2019-06-26T13:52:49.333Z,13.00
2019-06-26T13:53:49.384Z,12.40
2019-06-26T13:54:49.361Z,12.00
2019-06-26T13:55:49.305Z,12.30
2019-06-26T13:56:49.284Z,12.30
2019-06-26T13:57:49.341Z,12.60
2019-06-26T13:58:56.828Z,13.00
2019-06-26T13:59:49.346Z,12.70
2019-06-26T14:00:49.266Z,13.00
2019-06-26T14:01:49.294Z,12.40
2019-06-26T14:02:49.244Z,13.60
2019-06-26T14:03:49.229Z,13.00
2019-06-26T14:04:49.206Z,12.70
2019-06-26T14:05:49.191Z,12.10
2019-06-26T14:06:49.416Z,12.40
2019-06-26T14:07:49.180Z,12.10
2019-06-26T14:08:49.161Z,11.80
2019-06-26T14:09:49.191Z,11.40
2019-06-26T14:10:49.195Z,12.10
2019-06-26T14:11:49.132Z,12.00
2019-06-26T14:12:49.145Z,12.10
2019-06-26T14:13:49.135Z,11.00
2019-06-26T14:14:57.275Z,11.00
2019-06-26T14:15:50.094Z,11.60
2019-06-26T14:16:49.080Z,11.30
2019-06-26T14:17:49.134Z,11.00
2019-06-26T14:18:49.078Z,11.90
2019-06-26T14:19:50.235Z,11.10
2019-06-26T14:20:49.056Z,11.00
2019-06-26T14:21:49.035Z,10.50
2019-06-26T14:22:49.017Z,11.20
2019-06-26T14:23:49.059Z,11.90
2019-06-26T14:24:49.036Z,11.70
2019-06-26T14:25:49.006Z,11.30
2019-06-26T14:26:49.025Z,11.00
2019-06-26T14:27:48.997Z,11.90
2019-06-26T14:28:48.996Z,12.50
2019-06-26T14:29:48.952Z,11.80
2019-06-26T14:30:48.950Z,12.10
2019-06-26T14:31:48.939Z,12.10
2019-06-26T14:32:48.956Z,11.20
2019-06-26T14:33:48.918Z,11.20
2019-06-26T14:34:48.939Z,11.50
2019-06-26T14:35:48.902Z,11.30
2019-06-26T14:36:48.884Z,11.60
2019-06-26T14:37:48.895Z,11.30
2019-06-26T14:38:48.881Z,11.80
2019-06-26T14:39:48.906Z,11.20
2019-06-26T14:40:48.852Z,11.10
2019-06-26T14:41:48.837Z,11.70
2019-06-26T14:42:48.831Z,11.70
2019-06-26T14:43:48.816Z,11.30
2019-06-26T14:44:48.836Z,11.30
2019-06-26T14:45:48.806Z,11.10
2019-06-26T14:46:48.816Z,12.50
2019-06-26T14:47:48.810Z,11.40
2019-06-26T14:48:48.767Z,11.70
2019-06-26T14:49:48.796Z,11.40
2019-06-26T14:50:48.746Z,11.80
2019-06-26T14:51:48.754Z,11.20
2019-06-26T14:52:48.713Z,11.70
2019-06-26T14:53:48.748Z,11.70
2019-06-26T14:54:48.794Z,12.00
2019-06-26T14:55:48.690Z,11.70
2019-06-26T14:56:48.686Z,11.70
2019-06-26T14:57:48.699Z,11.30
2019-06-26T14:58:48.659Z,12.00
2019-06-26T14:59:48.813Z,11.40
2019-06-26T15:00:48.635Z,11.10
2019-06-26T15:01:48.628Z,10.90
2019-06-26T15:02:48.640Z,11.00
2019-06-26T15:03:48.599Z,11.30
2019-06-26T15:04:48.648Z,11.50
2019-06-26T15:05:48.584Z,10.30
2019-06-26T15:06:48.582Z,10.40
2019-06-26T15:07:50.184Z,10.80
2019-06-26T15:08:48.583Z,10.70
2019-06-26T15:09:48.575Z,11.00
2019-06-26T15:10:48.564Z,10.50
2019-06-26T15:11:48.537Z,10.70
2019-06-26T15:12:48.523Z,10.50
2019-06-26T15:13:48.506Z,10.60
2019-06-26T15:14:48.525Z,10.40
2019-06-26T15:15:48.498Z,10.30
2019-06-26T15:16:48.529Z,10.70
2019-06-26T15:17:48.550Z,10.50
2019-06-26T15:18:48.470Z,11.10
2019-06-26T15:19:48.481Z,11.20
2019-06-26T15:20:48.471Z,10.40
2019-06-26T15:21:57.830Z,9.80
2019-06-26T15:22:49.466Z,9.70
2019-06-26T15:23:48.412Z,9.60
2019-06-26T15:24:48.409Z,10.00
2019-06-26T15:25:48.483Z,9.60
2019-06-26T15:26:48.421Z,9.00
2019-06-26T15:27:48.397Z,9.00
2019-06-26T15:28:48.353Z,9.50
2019-06-26T15:29:48.362Z,9.10
2019-06-26T15:30:48.387Z,9.00
2019-06-26T15:31:48.324Z,8.70
2019-06-26T15:32:48.345Z,9.00
2019-06-26T15:33:48.341Z,9.30
2019-06-26T15:34:48.332Z,8.70
2019-06-26T15:35:48.279Z,8.80
2019-06-26T15:36:48.312Z,8.90
2019-06-26T15:37:48.320Z,8.70
2019-06-26T15:38:48.398Z,8.70
2019-06-26T15:39:48.254Z,8.60
2019-06-26T15:40:48.265Z,9.20
2019-06-26T15:41:48.246Z,9.20
2019-06-26T15:42:49.172Z,9.00
2019-06-26T15:43:48.220Z,9.10
2019-06-26T15:44:48.186Z,9.60
2019-06-26T15:45:48.176Z,9.30
2019-06-26T15:46:48.206Z,9.10
2019-06-26T15:47:48.194Z,8.60
2019-06-26T15:48:50.300Z,8.60
2019-06-26T15:49:48.142Z,8.70
2019-06-26T15:50:48.123Z,8.70
2019-06-26T15:51:48.174Z,8.40
2019-06-26T15:52:55.692Z,8.70
2019-06-26T15:53:48.093Z,9.10
2019-06-26T15:54:48.122Z,9.40
2019-06-26T15:55:48.080Z,8.50
2019-06-26T15:56:48.071Z,8.90
2019-06-26T15:57:48.112Z,9.60
2019-06-26T15:58:48.143Z,9.50
2019-06-26T15:59:48.033Z,10.00
2019-06-26T16:00:48.069Z,9.90
2019-06-26T16:01:48.035Z,9.80
2019-06-26T16:02:48.042Z,9.00
2019-06-26T16:03:48.005Z,9.80
2019-06-26T16:04:47.990Z,10.40
2019-06-26T16:05:48.037Z,10.50
2019-06-26T16:06:47.970Z,10.00
2019-06-26T16:07:47.986Z,10.00
2019-06-26T16:08:47.939Z,9.70
2019-06-26T16:09:47.936Z,10.10
2019-06-26T16:10:47.964Z,9.90
2019-06-26T16:11:47.927Z,9.70
2019-06-26T16:12:47.969Z,9.80
2019-06-26T16:13:47.908Z,9.70
2019-06-26T16:14:47.888Z,9.60
2019-06-26T16:15:47.876Z,10.20
2019-06-26T16:16:47.872Z,9.80
2019-06-26T16:17:47.892Z,8.50
2019-06-26T16:18:47.849Z,8.70
2019-06-26T16:19:47.848Z,8.60
2019-06-26T16:20:47.820Z,9.30
2019-06-26T16:21:47.860Z,8.50
2019-06-26T16:22:47.809Z,8.70
2019-06-26T16:23:47.809Z,7.90
2019-06-26T16:24:47.848Z,8.20
2019-06-26T16:25:47.831Z,7.60
2019-06-26T16:26:47.770Z,7.00
2019-06-26T16:28:01.063Z,7.70
2019-06-26T16:28:48.758Z,7.60
2019-06-26T16:29:48.657Z,7.50
2019-06-26T16:30:47.766Z,7.20
2019-06-26T16:31:47.728Z,6.70
2019-06-26T16:32:47.732Z,7.10
2019-06-26T16:33:47.691Z,6.60
2019-06-26T16:34:47.680Z,6.40
2019-06-26T16:35:47.671Z,6.70
2019-06-26T16:36:47.690Z,6.60
2019-06-26T16:37:48.025Z,6.60
2019-06-26T16:38:47.649Z,6.40
2019-06-26T16:39:47.627Z,6.30
2019-06-26T16:40:47.667Z,6.50
2019-06-26T16:41:49.139Z,5.90
2019-06-26T16:42:47.600Z,6.80
2019-06-26T16:43:47.592Z,6.50
2019-06-26T16:44:47.608Z,6.40
2019-06-26T16:45:47.566Z,6.20
2019-06-26T16:46:47.568Z,6.40
2019-06-26T16:47:47.632Z,6.30
2019-06-26T16:48:47.576Z,6.70
2019-06-26T16:49:47.548Z,6.60
2019-06-26T16:50:50.605Z,8.20
2019-06-26T16:51:47.514Z,7.50
2019-06-26T16:52:49.558Z,7.90
2019-06-26T16:53:47.494Z,8.40
2019-06-26T16:54:47.525Z,8.60
2019-06-26T16:55:47.481Z,8.20
2019-06-26T16:56:47.465Z,8.80
2019-06-26T16:57:47.489Z,9.40
2019-06-26T16:58:47.465Z,9.30
2019-06-26T16:59:47.506Z,10.50
2019-06-26T17:00:47.429Z,11.80
2019-06-26T17:01:47.422Z,11.10
2019-06-26T17:02:47.422Z,10.80
2019-06-26T17:03:47.420Z,11.10
2019-06-26T17:04:47.376Z,11.50
2019-06-26T17:05:47.362Z,11.40
2019-06-26T17:06:47.398Z,11.70
2019-06-26T17:07:47.382Z,12.80
2019-06-26T17:08:47.458Z,12.20
2019-06-26T17:09:47.737Z,12.60
2019-06-26T17:10:47.316Z,12.70
2019-06-26T17:11:47.356Z,12.00
2019-06-26T17:12:47.317Z,12.00
2019-06-26T17:13:47.311Z,12.60
2019-06-26T17:14:47.292Z,12.80
2019-06-26T17:15:47.264Z,13.10
2019-06-26T17:16:47.311Z,12.50
2019-06-26T17:17:47.251Z,12.00
2019-06-26T17:18:47.263Z,12.70
2019-06-26T17:19:47.225Z,11.80
2019-06-26T17:20:47.256Z,12.40
2019-06-26T17:21:47.243Z,11.70
2019-06-26T17:22:47.199Z,11.90
2019-06-26T17:23:47.184Z,11.40
2019-06-26T17:24:47.211Z,11.60
2019-06-26T17:25:47.215Z,11.90
2019-06-26T17:26:47.244Z,12.00
2019-06-26T17:27:47.283Z,11.40
2019-06-26T17:28:47.139Z,11.10
2019-06-26T17:29:47.212Z,11.50
2019-06-26T17:30:47.129Z,11.50
2019-06-26T17:31:47.101Z,11.70
2019-06-26T17:32:47.128Z,11.30
2019-06-26T17:33:47.138Z,11.70
2019-06-26T17:34:47.100Z,11.30
2019-06-26T17:35:47.078Z,10.60
2019-06-26T17:36:47.095Z,10.70
2019-06-26T17:37:47.044Z,11.50
2019-06-26T17:38:47.029Z,10.30
2019-06-26T17:39:47.213Z,11.00
2019-06-26T17:40:47.044Z,10.60
2019-06-26T17:41:47.005Z,10.80
2019-06-26T17:42:47.030Z,10.70
2019-06-26T17:43:47.068Z,12.00
2019-06-26T17:44:47.010Z,12.00
2019-06-26T17:45:47.014Z,12.60
2019-06-26T17:46:46.964Z,11.30
2019-06-26T17:47:46.974Z,12.00
2019-06-26T17:48:55.517Z,11.30
2019-06-26T17:49:46.947Z,10.80
2019-06-26T17:50:46.927Z,11.20
2019-06-26T17:51:46.914Z,10.70
2019-06-26T17:52:46.929Z,10.60
2019-06-26T17:53:46.887Z,9.50
2019-06-26T17:54:46.911Z,10.20
2019-06-26T17:55:46.860Z,10.40
2019-06-26T17:56:46.944Z,10.00
2019-06-26T17:57:47.741Z,10.00
2019-06-26T17:58:46.845Z,10.40
2019-06-26T17:59:46.815Z,9.70
2019-06-26T18:00:46.812Z,9.80
2019-06-26T18:01:46.872Z,10.10
2019-06-26T18:02:46.791Z,9.30
2019-06-26T18:03:46.781Z,9.80
2019-06-26T18:04:46.809Z,9.70
2019-06-26T18:05:46.809Z,10.20
2019-06-26T18:06:46.830Z,9.80
2019-06-26T18:07:46.741Z,10.10
2019-06-26T18:08:46.727Z,10.30
2019-06-26T18:09:46.727Z,9.90
2019-06-26T18:10:46.707Z,10.00
2019-06-26T18:11:55.555Z,10.10
2019-06-26T18:12:46.695Z,9.20
2019-06-26T18:13:46.720Z,10.00
2019-06-26T18:14:46.677Z,10.00
2019-06-26T18:15:46.822Z,9.90
2019-06-26T18:16:46.688Z,9.50
2019-06-26T18:17:46.641Z,10.20
2019-06-26T18:18:46.645Z,10.50
2019-06-26T18:19:46.684Z,10.70
2019-06-26T18:20:46.642Z,11.30
2019-06-26T18:21:46.594Z,10.80
2019-06-26T18:22:46.589Z,10.20
2019-06-26T18:23:46.581Z,10.70
2019-06-26T18:24:46.567Z,10.80
2019-06-26T18:25:53.851Z,11.00
2019-06-26T18:26:47.549Z,10.50
2019-06-26T18:27:46.548Z,10.70
2019-06-26T18:28:46.544Z,11.00
2019-06-26T18:29:46.533Z,10.80
2019-06-26T18:30:46.539Z,10.10
2019-06-26T18:31:46.502Z,11.00
2019-06-26T18:32:46.503Z,10.90
2019-06-26T18:33:46.491Z,10.80
2019-06-26T18:34:46.973Z,11.50
2019-06-26T18:35:46.455Z,11.70
2019-06-26T18:36:46.460Z,12.10
2019-06-26T18:37:46.434Z,12.10
2019-06-26T18:38:46.436Z,11.90
2019-06-26T18:39:46.443Z,12.60
2019-06-26T18:40:46.415Z,11.70
2019-06-26T18:41:46.402Z,12.60
2019-06-26T18:42:46.388Z,12.40
2019-06-26T18:43:46.464Z,12.40
2019-06-26T18:44:46.435Z,12.50
2019-06-26T18:45:46.359Z,12.40
2019-06-26T18:46:46.341Z,12.30
2019-06-26T18:47:46.336Z,12.20
2019-06-26T18:48:46.329Z,12.20
2019-06-26T18:49:46.339Z,12.60
2019-06-26T18:50:46.308Z,12.10
2019-06-26T18:51:46.336Z,12.00
2019-06-26T18:52:46.283Z,12.40
2019-06-26T18:53:53.596Z,12.20
2019-06-26T18:54:47.302Z,12.50
2019-06-26T18:55:46.264Z,11.50
2019-06-26T18:56:46.246Z,11.60
2019-06-26T18:57:46.226Z,11.10
2019-06-26T18:58:46.226Z,11.10
2019-06-26T18:59:46.255Z,11.50
2019-06-26T19:00:46.203Z,11.30
2019-06-26T19:01:46.191Z,11.00